Time;durP1;ratioP1;P1;durP2;ratioP2;P2;SDS_P1;SDS_P2;PMS_P1;PMS_P2;Temp;Humidity;BMP_temperature;BMP_pressure;BME280_temperature;BME280_humidity;BME280_pressure;Samples;Min_cycle;Max_cycle;Signal;HPM_P1;HPM_P2
2023/04/15 00:01:25;;;;;;;13.05;7.22;;;6.10;99.90;;;;;;4996395;28;20038;-80
2023/04/15 00:03:52;;;;;;;15.43;7.97;;;5.90;99.90;;;;;;5013407;28;20037;-79
2023/04/15 00:06:18;;;;;;;21.23;8.52;;;5.90;99.90;;;;;;5030113;28;20034;-79
2023/04/15 00:08:44;;;;;;;14.35;8.32;;;5.80;99.90;;;;;;5013346;28;20030;-79
2023/04/15 00:11:10;;;;;;;12.63;7.65;;;5.90;99.90;;;;;;5012914;28;20061;-80
2023/04/15 00:13:36;;;;;;;14.57;7.70;;;5.80;99.90;;;;;;5002084;28;20476;-79
2023/04/15 00:16:02;;;;;;;15.23;7.95;;;5.60;99.90;;;;;;5013908;28;20032;-79
2023/04/15 00:18:28;;;;;;;15.48;7.80;;;5.40;99.90;;;;;;5002133;28;20030;-79
2023/04/15 00:20:54;;;;;;;14.63;8.35;;;5.30;99.90;;;;;;4998702;28;20122;-80
2023/04/15 00:23:19;;;;;;;12.63;7.32;;;5.30;99.90;;;;;;5013496;28;20058;-79
2023/04/15 00:25:45;;;;;;;13.30;8.18;;;5.30;99.90;;;;;;4998582;28;20029;-81
2023/04/15 00:28:11;;;;;;;14.20;7.80;;;5.30;99.90;;;;;;4999432;28;20500;-80
2023/04/15 00:30:36;;;;;;;13.48;7.53;;;5.40;99.90;;;;;;4998726;28;20034;-80
2023/04/15 00:33:03;;;;;;;17.02;7.93;;;5.40;99.90;;;;;;5016173;28;20022;-80
2023/04/15 00:35:31;;;;;;;12.10;6.75;;;5.50;99.90;;;;;;5028792;28;20379;-80
2023/04/15 00:37:57;;;;;;;12.85;7.47;;;5.40;99.90;;;;;;5015159;28;20041;-80
2023/04/15 00:40:23;;;;;;;11.23;7.32;;;5.40;99.90;;;;;;5013346;28;20034;-80
2023/04/15 00:42:49;;;;;;;14.13;7.82;;;5.30;99.90;;;;;;5024083;28;20055;-80
2023/04/15 00:45:14;;;;;;;14.38;8.23;;;5.20;99.90;;;;;;4997918;28;20498;-80
2023/04/15 00:47:41;;;;;;;17.42;8.32;;;5.00;99.90;;;;;;5000485;28;20030;-80
2023/04/15 00:50:07;;;;;;;15.05;8.63;;;4.80;99.90;;;;;;5004869;28;20040;-81
2023/04/15 00:52:33;;;;;;;24.52;8.05;;;4.60;99.90;;;;;;5020248;28;20041;-80
2023/04/15 00:54:59;;;;;;;14.13;8.15;;;4.60;99.90;;;;;;5013806;28;20092;-80
2023/04/15 00:57:24;;;;;;;14.63;8.25;;;4.60;99.90;;;;;;4996824;28;20030;-81
2023/04/15 00:59:51;;;;;;;13.32;6.53;;;4.60;99.90;;;;;;5005087;28;20134;-80
2023/04/15 01:02:17;;;;;;;13.27;6.60;;;4.90;99.90;;;;;;5016434;28;20424;-80
2023/04/15 01:04:42;;;;;;;9.82;7.05;;;5.10;99.90;;;;;;4999724;28;20033;-80
2023/04/15 01:07:08;;;;;;;11.60;7.18;;;5.10;99.90;;;;;;4988383;28;20108;-80
2023/04/15 01:09:33;;;;;;;11.00;8.02;;;5.00;99.90;;;;;;5003607;28;20034;-80
2023/04/15 01:11:59;;;;;;;12.70;7.85;;;5.00;99.90;;;;;;5003719;28;20095;-80
2023/04/15 01:14:25;;;;;;;12.18;7.90;;;4.90;99.90;;;;;;5012680;28;20038;-80
2023/04/15 01:16:51;;;;;;;15.10;9.45;;;4.70;99.90;;;;;;4996398;28;20033;-80
2023/04/15 01:19:17;;;;;;;12.90;8.98;;;4.70;99.90;;;;;;5000855;28;20037;-80
2023/04/15 01:21:43;;;;;;;14.57;8.98;;;4.70;99.90;;;;;;5000655;28;20025;-80
2023/04/15 01:24:09;;;;;;;13.10;9.05;;;4.40;99.90;;;;;;5010829;28;20022;-80
2023/04/15 01:26:37;;;;;;;15.13;10.68;;;4.40;99.90;;;;;;4997293;28;20571;-80
2023/04/15 01:29:03;;;;;;;17.27;9.93;;;4.40;99.90;;;;;;5013254;28;20055;-80
2023/04/15 01:31:28;;;;;;;17.95;9.45;;;4.60;99.90;;;;;;5001158;28;20028;-80
2023/04/15 01:33:54;;;;;;;17.52;10.05;;;4.60;99.90;;;;;;5001937;28;20437;-80
2023/04/15 01:36:19;;;;;;;14.93;9.02;;;4.60;99.90;;;;;;5016447;28;20033;-79
2023/04/15 01:38:45;;;;;;;19.67;8.98;;;4.60;99.90;;;;;;5030674;28;20068;-79
2023/04/15 01:41:12;;;;;;;19.13;10.00;;;4.40;99.90;;;;;;4997209;28;20513;-79
2023/04/15 01:43:37;;;;;;;17.25;9.88;;;4.40;99.90;;;;;;4997297;28;20509;-80
2023/04/15 01:46:03;;;;;;;16.00;10.45;;;4.50;99.90;;;;;;5028603;28;20056;-79
2023/04/15 01:48:29;;;;;;;14.93;8.80;;;4.50;99.90;;;;;;5015518;28;20418;-79
2023/04/15 01:50:56;;;;;;;13.93;8.63;;;4.40;99.90;;;;;;5013068;28;20100;-79
2023/04/15 01:53:22;;;;;;;16.02;9.13;;;4.30;99.90;;;;;;5020754;28;20033;-80
2023/04/15 01:55:48;;;;;;;15.73;8.23;;;4.30;99.90;;;;;;5014502;28;20320;-80
2023/04/15 01:58:14;;;;;;;17.67;9.38;;;4.20;99.90;;;;;;5009490;28;20092;-79
2023/04/15 02:00:40;;;;;;;15.68;9.05;;;4.10;99.90;;;;;;4998587;28;20036;-80
2023/04/15 02:03:06;;;;;;;20.48;10.10;;;4.10;99.90;;;;;;5010965;28;20026;-80
2023/04/15 02:05:32;;;;;;;20.27;11.07;;;4.20;99.90;;;;;;5004244;28;20045;-79
2023/04/15 02:07:58;;;;;;;18.58;11.27;;;4.20;99.90;;;;;;5014831;28;20045;-80
2023/04/15 02:10:24;;;;;;;18.20;10.77;;;4.10;99.90;;;;;;5027110;28;21022;-79
2023/04/15 02:12:49;;;;;;;18.38;10.25;;;4.20;99.90;;;;;;4999322;28;20032;-79
2023/04/15 02:15:15;;;;;;;19.02;10.65;;;4.10;99.90;;;;;;4997176;28;20029;-79
2023/04/15 02:17:44;;;;;;;19.30;10.07;;;4.20;99.90;;;;;;5020784;28;20038;-79
2023/04/15 02:20:10;;;;;;;19.25;9.98;;;4.10;99.90;;;;;;5005875;28;20423;-78
2023/04/15 02:22:36;;;;;;;18.75;9.63;;;4.20;99.90;;;;;;5027441;28;20117;-79
2023/04/15 02:25:01;;;;;;;16.77;9.18;;;4.20;99.90;;;;;;5000741;28;20033;-79
2023/04/15 02:27:27;;;;;;;14.13;9.55;;;4.00;99.90;;;;;;5005243;28;20034;-79
2023/04/15 02:29:53;;;;;;;15.20;9.18;;;3.90;99.90;;;;;;4995781;28;20057;-79
2023/04/15 02:32:19;;;;;;;16.48;9.90;;;3.90;99.90;;;;;;5024188;28;20057;-79
2023/04/15 02:34:45;;;;;;;18.63;10.10;;;3.70;99.90;;;;;;5024776;28;20072;-80
2023/04/15 02:37:11;;;;;;;16.63;10.30;;;3.50;99.90;;;;;;5002974;28;20049;-79
2023/04/15 02:39:37;;;;;;;16.17;9.52;;;3.50;99.90;;;;;;5001828;28;20038;-79
2023/04/15 02:42:03;;;;;;;17.60;9.88;;;3.60;99.90;;;;;;4999704;28;20041;-79
2023/04/15 02:44:30;;;;;;;16.33;9.85;;;3.60;99.90;;;;;;5016404;28;20809;-79
2023/04/15 02:46:57;;;;;;;13.07;8.13;;;3.60;99.90;;;;;;5011561;28;20034;-80
2023/04/15 02:49:23;;;;;;;9.45;6.97;;;3.80;99.90;;;;;;5028042;28;20077;-79
2023/04/15 02:51:48;;;;;;;16.10;9.30;;;3.90;99.90;;;;;;5012010;28;20107;-80
2023/04/15 02:54:23;;;;;;;15.57;9.45;;;3.90;99.90;;;;;;5005725;28;20545;-79
2023/04/15 02:56:49;;;;;;;15.27;9.48;;;3.90;99.90;;;;;;5000707;28;20087;-78
2023/04/15 02:59:15;;;;;;;20.85;9.75;;;3.80;99.90;;;;;;4999877;28;20113;-78
2023/04/15 03:01:41;;;;;;;17.83;9.13;;;3.80;99.90;;;;;;5004877;28;20841;-77
2023/04/15 03:04:09;;;;;;;16.80;10.40;;;3.40;99.90;;;;;;5007775;28;20036;-77
2023/04/15 03:06:37;;;;;;;14.80;9.52;;;3.30;99.90;;;;;;5016218;28;20089;-77
2023/04/15 03:09:03;;;;;;;18.23;11.20;;;3.40;99.90;;;;;;5033909;28;20026;-77
2023/04/15 03:11:28;;;;;;;17.52;9.40;;;3.30;99.90;;;;;;5005518;28;20502;-77
2023/04/15 03:13:54;;;;;;;14.32;9.95;;;3.30;99.90;;;;;;5002394;28;20561;-77
2023/04/15 03:16:20;;;;;;;20.00;11.48;;;3.20;99.90;;;;;;5003036;28;20395;-77
2023/04/15 03:18:46;;;;;;;18.83;11.48;;;3.30;99.90;;;;;;5017789;28;20753;-78
2023/04/15 03:21:11;;;;;;;22.67;11.93;;;3.30;99.90;;;;;;5012603;28;20100;-77
2023/04/15 03:23:37;;;;;;;24.38;12.23;;;3.30;99.90;;;;;;5028660;28;20040;-77
2023/04/15 03:26:03;;;;;;;24.80;11.88;;;3.30;99.90;;;;;;5024379;28;20036;-78
2023/04/15 03:28:29;;;;;;;16.55;11.88;;;3.20;99.90;;;;;;5014503;28;20509;-77
2023/04/15 03:30:54;;;;;;;19.05;11.90;;;3.20;99.90;;;;;;5004540;28;20045;-78
2023/04/15 03:33:20;;;;;;;20.88;11.98;;;3.30;99.90;;;;;;5007377;28;20029;-78
2023/04/15 03:35:46;;;;;;;16.15;11.38;;;3.30;99.90;;;;;;5010383;28;20063;-78
2023/04/15 03:38:11;;;;;;;21.00;10.98;;;3.20;99.90;;;;;;5012900;28;20039;-78
2023/04/15 03:40:39;;;;;;;22.50;11.48;;;3.10;99.90;;;;;;5004819;28;20406;-78
2023/04/15 03:43:05;;;;;;;21.75;11.43;;;3.00;99.90;;;;;;5023747;28;20073;-78
2023/04/15 03:45:30;;;;;;;20.50;12.45;;;2.90;99.90;;;;;;5015566;28;20489;-78
2023/04/15 03:47:56;;;;;;;29.27;12.65;;;2.90;99.90;;;;;;5014771;28;20052;-78
2023/04/15 03:50:22;;;;;;;19.52;12.07;;;2.90;99.90;;;;;;5017454;28;20099;-78
2023/04/15 03:52:47;;;;;;;22.75;11.60;;;3.00;99.90;;;;;;5002345;28;20041;-78
2023/04/15 03:55:14;;;;;;;18.88;12.18;;;3.00;99.90;;;;;;5015397;28;20038;-78
2023/04/15 03:57:40;;;;;;;24.13;13.38;;;2.90;99.90;;;;;;5006387;28;20422;-78
2023/04/15 04:00:10;;;;;;;26.35;13.68;;;3.00;99.90;;;;;;4990093;28;20497;-78
2023/04/15 04:02:36;;;;;;;21.02;13.10;;;2.90;99.90;;;;;;5020340;28;20121;-78
2023/04/15 04:05:02;;;;;;;22.35;13.55;;;2.90;99.90;;;;;;5015152;28;20029;-78
2023/04/15 04:07:27;;;;;;;21.10;12.95;;;2.90;99.90;;;;;;5004659;28;20054;-78
2023/04/15 04:09:53;;;;;;;24.17;13.20;;;2.90;99.90;;;;;;5013160;28;20124;-78
2023/04/15 04:12:18;;;;;;;21.90;13.70;;;2.90;99.90;;;;;;5000941;28;20030;-78
2023/04/15 04:14:44;;;;;;;20.67;13.43;;;2.90;99.90;;;;;;5014664;28;20049;-78
2023/04/15 04:17:10;;;;;;;26.13;14.57;;;2.90;99.90;;;;;;5023131;28;20470;-78
2023/04/15 04:19:36;;;;;;;24.48;14.60;;;2.90;99.90;;;;;;5000778;28;20494;-78
2023/04/15 04:22:01;;;;;;;27.25;14.80;;;2.80;99.90;;;;;;5004778;28;20026;-78
2023/04/15 04:24:27;;;;;;;24.20;14.00;;;2.70;99.90;;;;;;5005560;28;20064;-78
2023/04/15 04:26:53;;;;;;;24.38;15.32;;;2.60;99.90;;;;;;5011782;28;20148;-78
2023/04/15 04:29:19;;;;;;;27.60;16.48;;;2.60;99.90;;;;;;4997538;28;20046;-78
2023/04/15 04:31:47;;;;;;;30.05;15.73;;;2.60;99.90;;;;;;5017481;28;20430;-77
2023/04/15 04:34:13;;;;;;;24.70;15.32;;;2.60;99.90;;;;;;5017138;28;20109;-79
2023/04/15 04:36:42;;;;;;;24.25;16.00;;;2.70;99.90;;;;;;5009469;28;20537;-79
2023/04/15 04:39:07;;;;;;;25.40;15.98;;;2.80;99.90;;;;;;5021377;28;20042;-77
2023/04/15 04:41:33;;;;;;;26.77;15.77;;;2.80;99.90;;;;;;5014952;28;20361;-78
2023/04/15 04:43:59;;;;;;;22.30;15.20;;;2.70;99.90;;;;;;4998478;28;20120;-78
2023/04/15 04:46:24;;;;;;;29.35;16.08;;;2.70;99.90;;;;;;4997244;28;20482;-78
2023/04/15 04:48:50;;;;;;;26.35;16.80;;;2.70;99.90;;;;;;5014129;28;20111;-78
2023/04/15 04:51:15;;;;;;;25.85;16.38;;;2.90;99.90;;;;;;5028791;28;20063;-77
2023/04/15 04:53:42;;;;;;;24.98;15.38;;;2.90;99.90;;;;;;5010528;28;20475;-77
2023/04/15 04:56:07;;;;;;;28.58;16.63;;;3.00;99.90;;;;;;4988628;28;20064;-78
2023/04/15 04:58:33;;;;;;;26.23;16.90;;;3.00;99.90;;;;;;5005237;28;20057;-78
2023/04/15 05:01:00;;;;;;;24.13;13.90;;;3.00;99.90;;;;;;5004422;28;20765;-79
2023/04/15 05:03:28;;;;;;;30.13;16.42;;;3.00;99.90;;;;;;4999533;28;20026;-77
2023/04/15 05:05:54;;;;;;;29.25;17.08;;;2.90;99.90;;;;;;4996011;28;20498;-78
2023/04/15 05:08:20;;;;;;;24.88;16.33;;;3.00;99.90;;;;;;5019249;28;20090;-77
2023/04/15 05:10:45;;;;;;;25.73;17.48;;;2.90;99.90;;;;;;5012050;28;20046;-77
2023/04/15 05:13:11;;;;;;;31.33;17.98;;;2.80;99.90;;;;;;4998845;28;20034;-77
2023/04/15 05:15:38;;;;;;;30.65;16.63;;;2.70;99.90;;;;;;5009490;28;20113;-77
2023/04/15 05:18:04;;;;;;;29.73;17.38;;;2.70;99.90;;;;;;5001287;28;20501;-77
2023/04/15 05:20:29;;;;;;;26.08;17.08;;;2.80;99.90;;;;;;5002857;28;20062;-78
2023/04/15 05:22:55;;;;;;;28.23;17.63;;;2.80;99.90;;;;;;5010845;28;20033;-77
2023/04/15 05:25:21;;;;;;;29.52;17.25;;;2.70;99.90;;;;;;5027832;28;20038;-77
2023/04/15 05:27:46;;;;;;;23.83;16.27;;;2.90;99.90;;;;;;5013646;28;20044;-77
2023/04/15 05:30:12;;;;;;;25.05;16.55;;;3.00;99.90;;;;;;5015920;28;20494;-77
2023/04/15 05:32:37;;;;;;;27.90;20.00;;;3.00;99.90;;;;;;5013809;28;20394;-78
2023/04/15 05:35:03;;;;;;;28.23;16.48;;;3.00;99.90;;;;;;5013513;28;20041;-78
2023/04/15 05:37:29;;;;;;;29.42;17.77;;;2.90;99.90;;;;;;5012640;28;20118;-77
2023/04/15 05:39:55;;;;;;;32.97;18.17;;;3.00;99.90;;;;;;5013619;28;20029;-78
2023/04/15 05:42:21;;;;;;;25.85;18.33;;;3.00;99.90;;;;;;5015178;28;20541;-77
2023/04/15 05:44:46;;;;;;;29.05;17.88;;;3.00;99.90;;;;;;4996636;28;20094;-77
2023/04/15 05:47:12;;;;;;;27.67;17.02;;;3.00;99.90;;;;;;5013690;28;20054;-77
2023/04/15 05:49:37;;;;;;;29.13;17.70;;;3.10;99.90;;;;;;4992329;28;20041;-77
2023/04/15 05:52:03;;;;;;;33.22;18.77;;;3.20;99.90;;;;;;5015104;28;20583;-76
2023/04/15 05:54:29;;;;;;;38.15;19.20;;;3.30;99.90;;;;;;5028845;28;20509;-77
2023/04/15 05:56:56;;;;;;;29.90;18.50;;;3.40;99.90;;;;;;5002692;28;20034;-77
2023/04/15 05:59:21;;;;;;;31.27;19.13;;;3.50;99.90;;;;;;5015527;28;20469;-77
2023/04/15 06:01:47;;;;;;;31.77;18.15;;;3.60;99.90;;;;;;5014517;28;20373;-77
2023/04/15 06:04:13;;;;;;;32.78;18.90;;;3.70;99.90;;;;;;5012806;28;20037;-77
2023/04/15 06:06:45;;;;;;;33.88;18.65;;;3.70;99.90;;;;;;5011792;28;20022;-77
2023/04/15 06:09:10;;;;;;;30.42;18.80;;;3.80;99.90;;;;;;5012268;28;20036;-79
2023/04/15 06:11:36;;;;;;;33.03;18.77;;;4.00;99.90;;;;;;5003839;28;20502;-78
2023/04/15 06:14:02;;;;;;;29.60;19.58;;;4.00;99.90;;;;;;5013071;28;20562;-78
2023/04/15 06:16:27;;;;;;;28.50;19.42;;;4.10;99.90;;;;;;5028534;28;20043;-78
2023/04/15 06:18:53;;;;;;;33.22;19.80;;;4.20;99.90;;;;;;4996356;28;20034;-78
2023/04/15 06:21:18;;;;;;;30.50;20.77;;;4.20;99.90;;;;;;5018238;28;20127;-79
2023/04/15 06:23:44;;;;;;;29.08;18.48;;;4.30;99.90;;;;;;5012764;28;20086;-78
2023/04/15 06:26:10;;;;;;;37.35;20.08;;;4.40;99.90;;;;;;5010111;28;20088;-79
2023/04/15 06:28:35;;;;;;;35.13;22.25;;;4.50;99.90;;;;;;5004056;28;20117;-78
2023/04/15 06:31:01;;;;;;;35.70;22.90;;;4.70;99.90;;;;;;4999748;28;20037;-78
2023/04/15 06:33:27;;;;;;;44.70;23.50;;;4.70;99.90;;;;;;5003856;28;20046;-78
2023/04/15 06:35:52;;;;;;;36.88;23.08;;;4.80;99.90;;;;;;5000030;28;20139;-79
2023/04/15 06:38:18;;;;;;;39.10;22.58;;;5.00;99.90;;;;;;5018163;28;20032;-78
2023/04/15 06:40:44;;;;;;;42.33;25.02;;;5.10;99.90;;;;;;4998334;28;20122;-77
2023/04/15 06:43:09;;;;;;;48.15;26.05;;;5.20;99.90;;;;;;5016171;28;20041;-78
2023/04/15 06:45:35;;;;;;;39.08;26.25;;;5.40;99.90;;;;;;5024013;28;20116;-78
2023/04/15 06:48:00;;;;;;;46.53;29.00;;;5.50;99.90;;;;;;5017780;28;20025;-78
2023/04/15 06:50:26;;;;;;;49.30;27.58;;;5.70;99.90;;;;;;5014391;28;20491;-78
2023/04/15 06:52:53;;;;;;;43.35;26.70;;;5.80;99.90;;;;;;5023282;28;20057;-77
2023/04/15 06:55:18;;;;;;;43.92;28.88;;;5.90;99.90;;;;;;4999570;28;20064;-78
2023/04/15 06:57:44;;;;;;;45.05;27.00;;;6.10;99.90;;;;;;5013341;28;20061;-78
2023/04/15 07:00:11;;;;;;;40.97;24.98;;;6.20;99.90;;;;;;5017032;28;20379;-78
2023/04/15 07:02:36;;;;;;;40.92;26.27;;;6.30;99.90;;;;;;5004770;28;20543;-78
2023/04/15 07:05:02;;;;;;;27.10;17.40;;;6.40;99.90;;;;;;5014966;28;20053;-78
2023/04/15 07:07:27;;;;;;;35.90;21.58;;;6.50;99.90;;;;;;5030801;28;20446;-78
2023/04/15 07:09:53;;;;;;;26.77;19.48;;;6.60;99.90;;;;;;5007569;28;20041;-78
2023/04/15 07:12:19;;;;;;;24.23;17.33;;;6.70;99.90;;;;;;5006725;28;20083;-78
2023/04/15 07:14:44;;;;;;;21.17;14.82;;;6.80;99.90;;;;;;5001653;28;20041;-77
2023/04/15 07:17:11;;;;;;;23.50;16.67;;;6.90;99.90;;;;;;5016574;28;20053;-78
2023/04/15 07:19:36;;;;;;;22.45;14.90;;;7.00;99.90;;;;;;4997578;28;20497;-77
2023/04/15 07:22:02;;;;;;;20.83;13.00;;;7.10;99.90;;;;;;5014069;28;20083;-77
2023/04/15 07:24:28;;;;;;;26.20;17.45;;;7.10;99.90;;;;;;5002184;28;20037;-77
2023/04/15 07:26:56;;;;;;;27.25;18.75;;;7.20;99.90;;;;;;5000237;28;20034;-78
2023/04/15 07:29:22;;;;;;;28.98;19.60;;;7.30;99.90;;;;;;5018979;28;20034;-77
2023/04/15 07:31:47;;;;;;;32.70;19.92;;;7.40;99.90;;;;;;5017691;28;20075;-77
2023/04/15 07:34:13;;;;;;;32.28;21.05;;;7.60;99.90;;;;;;5015498;28;20037;-77
2023/04/15 07:36:39;;;;;;;25.85;18.38;;;7.70;99.90;;;;;;4996842;28;20022;-77
2023/04/15 07:39:05;;;;;;;27.58;17.83;;;7.90;99.90;;;;;;4999718;28;20060;-78
2023/04/15 07:41:30;;;;;;;25.63;18.70;;;8.00;99.90;;;;;;4998696;28;20081;-78
2023/04/15 07:43:56;;;;;;;25.85;19.48;;;8.10;99.90;;;;;;5013842;28;20590;-78
2023/04/15 07:46:23;;;;;;;25.15;18.10;;;8.30;99.90;;;;;;4999930;28;20030;-79
2023/04/15 07:48:49;;;;;;;25.60;15.40;;;8.60;99.90;;;;;;5017140;28;20041;-78
2023/04/15 07:51:16;;;;;;;20.15;13.90;;;8.70;99.90;;;;;;5012050;28;20041;-78
2023/04/15 07:53:42;;;;;;;19.98;14.55;;;9.00;99.90;;;;;;5000365;28;20048;-78
2023/04/15 07:56:07;;;;;;;21.00;13.65;;;9.20;99.90;;;;;;5002112;28;20046;-78
2023/04/15 07:58:33;;;;;;;20.60;13.20;;;9.40;99.90;;;;;;5019551;28;20136;-76
2023/04/15 08:00:58;;;;;;;17.33;12.38;;;9.60;99.90;;;;;;5003864;28;21305;-77
2023/04/15 08:03:24;;;;;;;15.45;10.95;;;9.70;99.90;;;;;;5017737;28;20490;-76
2023/04/15 08:05:49;;;;;;;16.13;10.85;;;10.00;99.90;;;;;;5016885;28;20111;-77
2023/04/15 08:08:15;;;;;;;14.88;10.40;;;10.20;99.90;;;;;;5019407;28;20080;-76
2023/04/15 08:10:41;;;;;;;14.98;10.00;;;10.30;99.90;;;;;;4997416;28;20118;-76
2023/04/15 08:13:06;;;;;;;15.10;11.23;;;10.40;99.90;;;;;;4990056;28;20478;-78
2023/04/15 08:15:32;;;;;;;17.92;11.35;;;10.60;99.90;;;;;;5004973;28;20030;-76
2023/04/15 08:17:59;;;;;;;16.00;9.80;;;10.70;99.90;;;;;;5014046;28;20398;-76
2023/04/15 08:20:25;;;;;;;14.13;9.65;;;10.90;99.90;;;;;;5022578;28;25649;-76
2023/04/15 08:22:51;;;;;;;14.00;9.27;;;11.10;99.90;;;;;;4998475;28;20121;-75
2023/04/15 08:25:18;;;;;;;14.32;10.27;;;11.30;99.90;;;;;;5013358;28;20060;-75
2023/04/15 08:27:44;;;;;;;13.93;9.00;;;11.50;99.90;;;;;;5015029;28;20033;-75
2023/04/15 08:30:10;;;;;;;11.93;8.70;;;11.70;99.90;;;;;;5019878;28;20540;-76
2023/04/15 08:32:37;;;;;;;12.98;8.15;;;11.90;99.90;;;;;;5031143;28;20105;-76
2023/04/15 08:35:03;;;;;;;10.77;7.18;;;12.10;99.90;;;;;;5015841;28;20032;-76
2023/04/15 08:37:29;;;;;;;12.27;8.73;;;12.10;99.90;;;;;;5028758;28;20360;-76
2023/04/15 08:39:55;;;;;;;10.40;7.68;;;12.30;99.90;;;;;;4987622;28;20472;-76
2023/04/15 08:42:25;;;;;;;9.25;7.72;;;12.50;99.90;;;;;;5020363;28;20040;-76
2023/04/15 08:45:14;;;;;;;12.80;8.18;;;12.70;99.90;;;;;;5009670;28;20482;-77
2023/04/15 08:47:46;;;;;;;9.70;7.75;;;13.00;99.90;;;;;;5020652;28;20104;-76
2023/04/15 08:50:11;;;;;;;9.25;7.70;;;13.10;99.90;;;;;;5006203;28;20111;-77
2023/04/15 08:52:37;;;;;;;7.05;5.13;;;13.10;99.90;;;;;;4997124;28;20038;-77
2023/04/15 08:55:49;;;;;;;6.45;4.55;;;13.40;99.90;;;;;;5001111;28;20064;-79
2023/04/15 08:58:15;;;;;;;6.38;4.60;;;13.50;99.90;;;;;;5015048;28;20040;-78
2023/04/15 09:00:40;;;;;;;5.25;4.25;;;13.40;99.90;;;;;;4971942;28;20486;-76
2023/04/15 09:03:06;;;;;;;5.57;4.30;;;13.40;99.90;;;;;;5018924;28;20037;-78
2023/04/15 09:05:32;;;;;;;5.60;4.70;;;13.50;99.90;;;;;;5017951;28;20026;-77
2023/04/15 09:07:58;;;;;;;6.03;4.50;;;13.70;99.90;;;;;;5015595;28;20037;-77
2023/04/15 09:10:24;;;;;;;5.90;5.07;;;13.80;99.90;;;;;;4998473;28;20523;-78
2023/04/15 09:12:49;;;;;;;6.43;4.97;;;13.90;99.90;;;;;;5023530;28;20121;-77
2023/04/15 09:15:28;;;;;;;5.35;4.80;;;14.00;99.90;;;;;;5004594;28;20037;-77
2023/04/15 09:18:06;;;;;;;5.63;4.65;;;14.00;99.90;;;;;;4996589;28;20038;-76
2023/04/15 09:20:40;;;;;;;8.88;4.25;;;14.10;99.90;;;;;;4995344;28;20494;-77
2023/04/15 09:23:13;;;;;;;5.05;4.30;;;14.20;99.90;;;;;;5005080;28;20033;-77
2023/04/15 09:25:38;;;;;;;6.40;4.18;;;14.40;99.90;;;;;;5003039;28;20034;-76
2023/04/15 09:28:04;;;;;;;5.43;4.35;;;14.40;99.90;;;;;;5018157;28;20024;-76
2023/04/15 09:30:30;;;;;;;8.13;4.80;;;14.40;99.90;;;;;;5000028;28;20069;-77
2023/04/15 09:33:07;;;;;;;6.00;4.35;;;14.40;99.90;;;;;;5013505;28;20134;-76
2023/04/15 09:35:32;;;;;;;4.82;4.05;;;14.50;99.90;;;;;;5017131;28;20085;-77
2023/04/15 09:38:09;;;;;;;5.47;4.20;;;14.60;99.90;;;;;;4998845;28;20025;-76
2023/04/15 09:40:36;;;;;;;6.20;4.07;;;14.60;99.90;;;;;;4994863;28;20090;-77
2023/04/15 09:43:06;;;;;;;6.00;4.32;;;14.70;99.90;;;;;;5017298;28;20091;-77
2023/04/15 09:45:32;;;;;;;5.40;4.15;;;14.90;99.90;;;;;;5015498;28;20033;-76
2023/04/15 09:47:58;;;;;;;6.13;4.28;;;14.80;99.90;;;;;;4998918;28;20049;-77
2023/04/15 09:50:26;;;;;;;6.25;4.53;;;14.70;99.90;;;;;;5011755;28;20081;-76
2023/04/15 09:52:52;;;;;;;4.35;3.67;;;14.60;99.90;;;;;;5028186;28;20060;-78
2023/04/15 09:55:17;;;;;;;4.95;4.03;;;14.70;99.90;;;;;;4998393;28;20034;-76
2023/04/15 09:57:45;;;;;;;4.43;3.65;;;14.70;99.90;;;;;;5002972;28;20508;-76
2023/04/15 10:00:11;;;;;;;6.95;3.47;;;14.60;99.90;;;;;;4999630;28;20033;-77
2023/04/15 10:02:38;;;;;;;3.63;3.33;;;14.60;99.90;;;;;;5002962;28;20030;-76
2023/04/15 10:05:04;;;;;;;4.75;3.30;;;14.40;99.90;;;;;;5001443;28;20120;-76
2023/04/15 10:07:30;;;;;;;5.32;3.83;;;14.30;99.90;;;;;;5020832;28;20030;-77
2023/04/15 10:09:56;;;;;;;4.25;3.70;;;14.30;99.90;;;;;;5017123;28;20056;-77
2023/04/15 10:12:22;;;;;;;3.88;3.47;;;14.30;99.90;;;;;;4997070;28;20038;-76
2023/04/15 10:14:51;;;;;;;4.65;3.45;;;14.30;99.90;;;;;;5005859;28;20028;-77
2023/04/15 10:17:17;;;;;;;5.20;4.32;;;14.30;99.90;;;;;;5019888;28;20125;-76
2023/04/15 10:19:42;;;;;;;5.75;4.80;;;14.40;99.90;;;;;;5016700;28;20121;-76
2023/04/15 10:22:08;;;;;;;6.72;4.95;;;14.50;99.90;;;;;;5014915;28;20034;-76
2023/04/15 10:24:34;;;;;;;5.75;4.28;;;14.30;99.90;;;;;;5019339;28;20060;-76
2023/04/15 10:26:59;;;;;;;6.85;4.70;;;14.30;99.90;;;;;;5017007;28;20475;-76
2023/04/15 10:29:28;;;;;;;8.32;4.13;;;14.40;99.90;;;;;;5033299;28;20046;-76
2023/04/15 10:31:55;;;;;;;5.38;3.72;;;14.70;99.90;;;;;;5026928;28;20505;-75
2023/04/15 10:34:21;;;;;;;4.65;3.60;;;14.70;99.90;;;;;;5017555;28;20037;-75
2023/04/15 10:36:47;;;;;;;3.67;3.35;;;14.90;99.90;;;;;;4998381;28;20351;-76
2023/04/15 10:39:33;;;;;;;5.55;3.90;;;14.90;99.90;;;;;;5014012;28;20034;-76
2023/04/15 10:42:14;;;;;;;4.38;3.85;;;15.10;99.90;;;;;;5007641;28;20030;-76
2023/04/15 10:44:45;;;;;;;3.92;3.53;;;15.00;99.90;;;;;;5021219;28;20742;-76
2023/04/15 10:47:17;;;;;;;4.22;3.70;;;15.00;99.90;;;;;;5001733;28;20474;-75
2023/04/15 10:49:44;;;;;;;4.05;3.60;;;14.90;99.90;;;;;;5032248;28;20064;-76
2023/04/15 10:52:10;;;;;;;5.55;4.30;;;14.90;99.90;;;;;;4998530;28;20614;-78
2023/04/15 10:54:38;;;;;;;6.88;4.45;;;14.90;99.90;;;;;;5018056;28;20030;-77
2023/04/15 10:57:03;;;;;;;7.07;5.10;;;15.20;99.90;;;;;;5018450;28;20116;-77
2023/04/15 10:59:49;;;;;;;6.22;5.22;;;15.20;99.90;;;;;;5019769;28;20497;-77
2023/04/15 11:02:15;;;;;;;5.78;5.05;;;15.00;99.90;;;;;;5014477;28;20502;-77
2023/04/15 11:04:53;;;;;;;6.80;5.60;;;15.00;99.90;;;;;;5012793;28;20030;-77
2023/04/15 11:07:42;;;;;;;7.93;4.93;;;15.00;99.90;;;;;;5023300;28;20045;-77
2023/04/15 11:10:20;;;;;;;4.65;4.18;;;15.30;99.90;;;;;;5016304;28;20490;-76
2023/04/15 11:12:46;;;;;;;5.32;4.00;;;15.30;99.90;;;;;;5013118;28;20113;-76
2023/04/15 11:15:30;;;;;;;6.07;4.72;;;15.40;99.90;;;;;;5029548;28;20034;-75
2023/04/15 11:17:56;;;;;;;5.80;5.07;;;15.40;99.90;;;;;;5016948;28;20036;-76
2023/04/15 11:20:22;;;;;;;6.88;6.00;;;15.40;99.90;;;;;;5020281;28;20029;-76
2023/04/15 11:22:49;;;;;;;6.90;6.20;;;15.50;99.90;;;;;;5017477;28;20038;-76
2023/04/15 11:25:24;;;;;;;6.85;5.93;;;15.20;99.90;;;;;;5003478;28;20037;-76
2023/04/15 11:27:51;;;;;;;6.13;5.53;;;14.90;99.90;;;;;;5016148;28;20501;-77
2023/04/15 11:30:21;;;;;;;6.32;5.72;;;14.70;99.90;;;;;;5024259;28;20413;-76
2023/04/15 11:32:49;;;;;;;6.95;5.82;;;14.60;99.90;;;;;;5025792;28;20486;-77
2023/04/15 11:35:16;;;;;;;6.75;5.75;;;14.50;99.90;;;;;;4999874;28;20133;-76
2023/04/15 11:37:42;;;;;;;8.40;5.40;;;14.30;99.90;;;;;;5002879;28;20064;-76
2023/04/15 11:40:08;;;;;;;6.82;5.45;;;14.20;99.90;;;;;;4992713;28;20527;-77
2023/04/15 11:42:33;;;;;;;9.40;5.25;;;14.00;99.90;;;;;;5032259;28;20044;-76
2023/04/15 11:45:14;;;;;;;7.30;5.32;;;14.10;99.90;;;;;;5014983;28;20033;-76
2023/04/15 11:47:41;;;;;;;5.93;5.32;;;13.90;99.90;;;;;;5020630;28;20091;-76
2023/04/15 11:50:22;;;;;;;6.10;5.50;;;13.80;99.90;;;;;;5009064;28;20091;-76
2023/04/15 11:52:54;;;;;;;6.50;4.43;;;13.80;99.90;;;;;;5031257;28;20034;-77
2023/04/15 11:55:19;;;;;;;7.53;4.38;;;13.70;99.90;;;;;;5021578;28;20040;-76
2023/04/15 11:57:45;;;;;;;6.00;5.22;;;13.50;99.90;;;;;;5017899;28;20493;-76
2023/04/15 12:00:11;;;;;;;5.00;4.15;;;13.30;99.90;;;;;;5015493;28;20510;-77
2023/04/15 12:02:37;;;;;;;5.97;5.07;;;13.30;99.90;;;;;;5024970;28;20044;-77
2023/04/15 12:05:04;;;;;;;6.78;5.32;;;13.30;99.90;;;;;;5026971;28;20033;-76
2023/04/15 12:07:29;;;;;;;7.32;5.30;;;13.30;99.90;;;;;;5013981;28;20033;-76
2023/04/15 12:09:55;;;;;;;5.50;4.85;;;13.20;99.90;;;;;;5029703;28;20199;-76
2023/04/15 12:12:22;;;;;;;5.70;5.05;;;13.30;99.90;;;;;;5012801;28;20127;-76
2023/04/15 12:14:50;;;;;;;7.38;5.03;;;13.10;99.90;;;;;;5012635;28;20500;-77
2023/04/15 12:17:16;;;;;;;5.75;4.53;;;13.10;99.90;;;;;;5003045;28;20037;-76
2023/04/15 12:19:44;;;;;;;6.45;4.90;;;13.00;99.90;;;;;;5016918;28;20034;-77
2023/04/15 12:22:11;;;;;;;6.15;4.57;;;13.00;99.90;;;;;;5022287;28;20030;-77
2023/04/15 12:24:37;;;;;;;5.97;4.82;;;13.00;99.90;;;;;;4995481;28;20750;-78
2023/04/15 12:27:03;;;;;;;4.70;4.15;;;13.00;99.90;;;;;;5017074;28;20040;-76
2023/04/15 12:29:29;;;;;;;6.32;4.43;;;13.00;99.90;;;;;;5033395;28;20455;-76
2023/04/15 12:32:03;;;;;;;4.82;4.18;;;13.00;99.90;;;;;;5002306;28;20227;-76
2023/04/15 12:34:36;;;;;;;4.65;4.10;;;12.90;99.90;;;;;;5017593;28;20025;-76
2023/04/15 12:37:03;;;;;;;4.80;4.30;;;12.90;99.90;;;;;;5019385;28;20824;-77
2023/04/15 12:39:34;;;;;;;5.72;4.63;;;12.70;99.90;;;;;;5028030;28;20034;-76
2023/04/15 12:42:00;;;;;;;6.15;5.22;;;12.50;99.90;;;;;;5026417;28;20041;-77